Time;durP1;ratioP1;P1;durP2;ratioP2;P2;SDS_P1;SDS_P2;PMS_P1;PMS_P2;Temp;Humidity;BMP_temperature;BMP_pressure;BME280_temperature;BME280_humidity;BME280_pressure;Samples;Min_cycle;Max_cycle;Signal;HPM_P1;HPM_P2
2022/01/15 00:00:50;;;;;;;4.20;0.60;;;;;;;0.09;68.76;97340.35;25106;1316;3030201;-69
2022/01/15 00:03:19;;;;;;;1.90;0.50;;;;;;;0.00;69.26;97329.61;25127;1316;3057875;-71
2022/01/15 00:05:48;;;;;;;4.00;0.80;;;;;;;0.01;68.95;97346.09;25132;1316;3026617;-67
2022/01/15 00:08:17;;;;;;;3.10;0.60;;;;;;;0.01;69.07;97336.60;25139;1316;3051190;-68
2022/01/15 00:10:46;;;;;;;1.60;0.40;;;;;;;-0.00;69.42;97373.00;25157;1315;3027033;-70
2022/01/15 00:13:25;;;;;;;1.90;0.30;;;;;;;0.69;67.57;97366.43;25147;1316;3052425;-66
2022/01/15 00:16:05;;;;;;;4.40;1.00;;;;;;;1.16;65.92;97339.41;25130;1315;3052280;-68
2022/01/15 00:19:00;;;;;;;3.30;0.60;;;;;;;1.05;65.62;97374.98;25115;1316;3059348;-68
2022/01/15 00:21:29;;;;;;;7.90;0.90;;;;;;;0.80;65.83;97352.06;25118;1316;3048258;-66
2022/01/15 00:23:58;;;;;;;1.50;0.50;;;;;;;0.75;65.92;97356.79;25165;1316;3026460;-67
2022/01/15 00:26:27;;;;;;;1.70;0.50;;;;;;;0.60;66.00;97359.52;25107;1316;3056116;-65
2022/01/15 00:28:56;;;;;;;2.20;0.40;;;;;;;0.43;66.59;97378.67;25142;1314;3026537;-68
2022/01/15 00:31:25;;;;;;;1.50;0.60;;;;;;;0.42;66.42;97356.54;25128;1316;3026182;-67
2022/01/15 00:33:54;;;;;;;3.10;0.50;;;;;;;0.33;66.38;97379.02;25111;1315;3055838;-67
2022/01/15 00:36:23;;;;;;;4.10;0.80;;;;;;;0.30;66.68;97380.36;25158;1316;3026900;-68
2022/01/15 00:38:52;;;;;;;2.50;0.60;;;;;;;0.29;66.58;97369.23;25103;1316;3050665;-68
2022/01/15 00:41:21;;;;;;;1.10;0.40;;;;;;;0.24;66.25;97372.11;25139;1316;3026584;-69
2022/01/15 00:43:50;;;;;;;1.90;0.50;;;;;;;0.16;66.54;97368.38;25124;1315;3052035;-70
2022/01/15 00:46:19;;;;;;;3.70;0.70;;;;;;;0.16;66.38;97376.66;25207;1316;3026802;-69
2022/01/15 00:48:48;;;;;;;0.90;0.50;;;;;;;0.12;66.44;97377.02;25155;1314;3048121;-69
2022/01/15 00:51:17;;;;;;;1.20;0.60;;;;;;;0.14;65.79;97383.09;25136;1316;3026498;-66
2022/01/15 00:53:46;;;;;;;1.60;0.70;;;;;;;0.17;65.61;97374.54;25136;1316;3070533;-67
2022/01/15 00:56:15;;;;;;;3.70;1.00;;;;;;;0.22;65.39;97394.60;25135;1315;3026131;-67
2022/01/15 00:58:44;;;;;;;5.00;0.60;;;;;;;0.14;65.25;97413.73;25137;1316;3050387;-68
2022/01/15 01:01:12;;;;;;;1.70;0.70;;;;;;;0.15;65.26;97383.90;25080;1315;3027982;-69
2022/01/15 01:03:41;;;;;;;3.10;0.70;;;;;;;0.22;64.60;97390.47;25119;1316;3055565;-70
2022/01/15 01:06:10;;;;;;;2.60;0.70;;;;;;;0.27;64.36;97383.45;25133;1316;3027001;-62
2022/01/15 01:08:39;;;;;;;3.00;0.70;;;;;;;0.26;64.28;97404.20;25122;1316;3049055;-66
2022/01/15 01:11:13;;;;;;;3.50;0.70;;;;;;;0.26;64.03;97394.75;25149;1316;3026536;-67
2022/01/15 01:20:04;;;;;;;2.60;0.70;;;;;;;0.24;64.21;97394.46;25151;1316;3058799;-69
2022/01/15 01:24:54;;;;;;;5.70;1.00;;;;;;;0.29;64.27;97424.88;25110;1316;3068810;-67
2022/01/15 01:27:28;;;;;;;2.90;0.50;;;;;;;0.33;63.96;97409.33;25109;1315;3026511;-66
2022/01/15 01:30:16;;;;;;;;;;;;;;;0.37;64.20;97410.85;25148;1316;3054057;-67
2022/01/15 01:32:54;;;;;;;2.70;0.50;;;;;;;0.34;64.46;97412.58;25110;1316;3070763;-68
2022/01/15 01:35:40;;;;;;;2.10;0.60;;;;;;;0.30;64.41;97419.30;25105;1316;3051988;-71
2022/01/15 01:38:27;;;;;;;3.30;1.00;;;;;;;0.29;64.48;97427.79;25111;1316;3054468;-68
2022/01/15 01:40:59;;;;;;;5.20;0.50;;;;;;;0.34;64.49;97433.27;25102;1315;3054749;-66
2022/01/15 01:46:15;;;;;;;4.00;0.70;;;;;;;0.22;64.53;97445.89;25119;1315;3050828;-67
2022/01/15 01:48:44;;;;;;;1.90;0.60;;;;;;;0.24;64.34;97438.05;25133;1316;3055811;-66
2022/01/15 01:51:21;;;;;;;1.80;0.30;;;;;;;0.18;64.73;97437.16;25124;1315;3026711;-65
2022/01/15 01:53:50;;;;;;;1.10;0.60;;;;;;;0.13;64.47;97448.24;25101;1316;3052281;-68
2022/01/15 01:56:20;;;;;;;2.00;0.60;;;;;;;0.15;64.56;97458.30;25160;1315;3026237;-68
2022/01/15 01:58:49;;;;;;;1.10;0.50;;;;;;;0.24;64.25;97459.73;25108;1315;3026657;-67
2022/01/15 02:01:18;;;;;;;4.10;0.70;;;;;;;0.18;64.16;97453.53;25107;1316;3049407;-66
2022/01/15 02:03:46;;;;;;;6.00;0.50;;;;;;;0.15;64.19;97470.87;25106;1315;3026762;-66
2022/01/15 02:06:16;;;;;;;1.60;0.60;;;;;;;0.17;64.13;97443.20;25106;1315;3056038;-69
2022/01/15 02:08:46;;;;;;;2.20;0.80;;;;;;;0.16;64.38;97455.33;25091;1316;3026454;-68
2022/01/15 02:11:15;;;;;;;1.10;0.40;;;;;;;0.10;64.28;97478.17;25153;1316;3026481;-67
2022/01/15 02:13:46;;;;;;;3.20;0.50;;;;;;;0.06;64.37;97493.89;25115;1314;3026021;-68
2022/01/15 02:16:15;;;;;;;0.90;0.50;;;;;;;0.07;64.53;97458.34;25154;1316;3026788;-67
2022/01/15 02:18:44;;;;;;;1.50;0.60;;;;;;;0.12;64.21;97459.63;25125;1316;3026704;-67
2022/01/15 02:23:44;;;;;;;4.00;1.10;;;;;;;0.09;64.37;97474.61;25070;1316;3026306;-69
2022/01/15 02:26:15;;;;;;;2.80;0.70;;;;;;;0.12;64.15;97476.52;25104;1316;3053208;-69
2022/01/15 02:28:50;;;;;;;2.40;0.60;;;;;;;0.25;64.07;97470.03;25130;1316;3026554;-66
2022/01/15 02:31:19;;;;;;;3.20;0.60;;;;;;;0.20;64.38;97493.16;25134;1316;3070511;-68
2022/01/15 02:33:49;;;;;;;2.50;0.70;;;;;;;0.20;64.04;97496.45;25133;1319;3027216;-67
2022/01/15 02:36:20;;;;;;;4.50;0.60;;;;;;;0.21;63.79;97497.77;25183;1314;3049572;-67
2022/01/15 02:38:49;;;;;;;1.90;0.60;;;;;;;0.15;63.86;97505.46;25158;1316;3026874;-68
2022/01/15 02:41:24;;;;;;;1.90;0.40;;;;;;;0.21;63.97;97498.99;25216;1316;3026672;-67
2022/01/15 02:43:54;;;;;;;0.90;0.40;;;;;;;0.24;63.81;97507.25;25115;1315;3052907;-67
2022/01/15 02:48:53;;;;;;;1.70;0.40;;;;;;;0.15;64.13;97531.66;25108;1316;3052239;-69
2022/01/15 02:51:40;;;;;;;5.00;0.80;;;;;;;0.25;63.86;97506.90;25157;1315;3029395;-68
2022/01/15 02:54:09;;;;;;;2.00;0.60;;;;;;;0.27;63.93;97507.48;25113;1316;3071438;-66
2022/01/15 02:56:42;;;;;;;3.20;0.50;;;;;;;0.22;64.23;97520.48;25142;1316;3026838;-67
2022/01/15 02:59:29;;;;;;;0.90;0.40;;;;;;;0.24;64.28;97507.08;25094;1316;3052778;-66
2022/01/15 03:01:58;;;;;;;2.10;0.80;;;;;;;0.24;64.15;97523.29;25113;1316;3071214;-69
2022/01/15 03:04:27;;;;;;;0.70;0.40;;;;;;;0.26;64.18;97516.31;25145;1316;3026016;-67
2022/01/15 03:06:56;;;;;;;3.10;0.60;;;;;;;0.31;64.07;97526.23;25103;1316;3055069;-67
2022/01/15 03:09:25;;;;;;;2.10;0.50;;;;;;;0.25;63.99;97537.88;25113;1314;3027029;-67
2022/01/15 03:12:13;;;;;;;1.60;0.50;;;;;;;0.29;63.91;97540.63;25136;1316;3055333;-69
2022/01/15 03:14:44;;;;;;;3.80;0.60;;;;;;;0.31;64.06;97534.12;25086;1316;3026587;-68
2022/01/15 03:17:14;;;;;;;1.80;0.50;;;;;;;0.30;64.18;97541.23;25160;1316;3052598;-68
2022/01/15 03:19:43;;;;;;;0.80;0.50;;;;;;;0.29;64.25;97547.13;25136;1316;3028145;-70
2022/01/15 03:22:12;;;;;;;2.30;0.50;;;;;;;0.34;64.27;97546.73;25124;1316;3026774;-66
2022/01/15 03:24:41;;;;;;;2.30;0.50;;;;;;;0.36;64.56;97567.81;25107;1316;3051440;-67
2022/01/15 03:27:10;;;;;;;0.70;0.40;;;;;;;0.33;65.14;97583.64;25130;1316;3026558;-69
2022/01/15 03:29:39;;;;;;;4.30;0.60;;;;;;;0.30;65.64;97579.48;25201;1316;3058708;-69
2022/01/15 03:32:08;;;;;;;1.30;0.40;;;;;;;0.33;65.83;97575.70;25136;1316;3026681;-66
2022/01/15 03:34:37;;;;;;;2.10;0.60;;;;;;;0.31;66.31;97574.96;25166;1316;3050759;-70
2022/01/15 03:37:14;;;;;;;1.40;0.50;;;;;;;0.23;67.07;97590.48;25178;1316;3058092;-67
2022/01/15 03:39:44;;;;;;;2.10;0.60;;;;;;;0.21;67.56;97596.45;25119;1316;3026845;-65
2022/01/15 03:42:12;;;;;;;4.00;0.60;;;;;;;0.16;68.07;97597.02;25110;1316;3052197;-66
2022/01/15 03:44:45;;;;;;;1.80;0.40;;;;;;;0.19;68.18;97604.30;25097;1316;3026237;-68
2022/01/15 03:47:14;;;;;;;0.50;0.30;;;;;;;0.19;68.36;97618.44;25174;1316;3028211;-66
2022/01/15 03:49:43;;;;;;;1.40;0.60;;;;;;;0.14;68.38;97605.23;25139;1316;3028698;-67
2022/01/15 03:52:12;;;;;;;1.30;0.50;;;;;;;0.12;68.42;97635.11;25113;1315;3027358;-69
2022/01/15 03:54:41;;;;;;;2.40;0.70;;;;;;;0.08;68.93;97636.65;25113;1315;3052007;-65
2022/01/15 03:57:10;;;;;;;1.00;0.60;;;;;;;0.08;68.86;97617.19;25123;1316;3028069;-66
2022/01/15 03:59:40;;;;;;;5.70;0.50;;;;;;;0.05;69.17;97631.31;25125;1316;3058650;-67
2022/01/15 04:02:13;;;;;;;2.70;0.70;;;;;;;0.05;69.22;97627.00;25136;1316;3052430;-67
2022/01/15 04:04:42;;;;;;;2.20;0.40;;;;;;;0.04;69.30;97626.86;25117;1319;3026390;-68
2022/01/15 04:07:11;;;;;;;1.90;0.60;;;;;;;0.74;67.41;97636.04;25107;1316;3057174;-66
2022/01/15 04:09:40;;;;;;;6.60;0.60;;;;;;;1.22;65.57;97614.30;25100;1316;3027046;-63
2022/01/15 04:12:09;;;;;;;1.50;0.50;;;;;;;1.27;64.87;97630.63;25121;1316;3051519;-67
2022/01/15 04:14:38;;;;;;;1.10;0.50;;;;;;;1.02;65.15;97640.16;25171;1316;3028523;-66
2022/01/15 04:17:07;;;;;;;4.50;0.70;;;;;;;0.94;64.86;97652.48;25091;1316;3053943;-68
2022/01/15 04:19:36;;;;;;;1.80;0.70;;;;;;;0.75;65.46;97639.65;25145;1316;3026716;-65
2022/01/15 04:22:05;;;;;;;1.90;0.70;;;;;;;0.62;66.01;97668.02;25077;1315;3048143;-67
2022/01/15 04:24:34;;;;;;;2.60;1.30;;;;;;;0.53;65.99;97636.20;25100;1315;3026873;-68
2022/01/15 04:27:04;;;;;;;4.10;0.90;;;;;;;0.45;66.38;97657.33;25102;1319;3071778;-65
2022/01/15 04:29:34;;;;;;;4.20;0.90;;;;;;;0.33;66.87;97661.84;25090;1316;3026136;-64
2022/01/15 04:32:03;;;;;;;2.90;0.80;;;;;;;0.33;66.84;97645.44;25120;1315;3027563;-66
2022/01/15 04:34:32;;;;;;;2.50;1.00;;;;;;;0.24;67.55;97654.68;25132;1316;3070426;-67
2022/01/15 04:37:11;;;;;;;6.80;1.30;;;;;;;0.18;68.10;97662.38;25083;1316;3028267;-69
2022/01/15 04:39:42;;;;;;;3.20;1.30;;;;;;;0.23;68.14;97659.20;25132;1316;3051071;-70
2022/01/15 04:42:11;;;;;;;4.20;0.90;;;;;;;0.12;68.66;97667.28;25097;1316;3029510;-66
2022/01/15 04:44:40;;;;;;;6.50;1.10;;;;;;;0.12;68.79;97654.20;25116;1316;3027786;-69
2022/01/15 04:47:08;;;;;;;4.60;0.80;;;;;;;0.07;68.94;97664.44;25105;1316;3051007;-69
2022/01/15 04:49:37;;;;;;;3.40;0.90;;;;;;;0.04;69.46;97666.98;25108;1316;3029606;-65
2022/01/15 04:52:06;;;;;;;3.70;1.00;;;;;;;-0.09;70.14;97698.04;25110;1316;3054732;-68
2022/01/15 04:54:36;;;;;;;1.80;0.70;;;;;;;-0.04;70.51;97676.99;25183;1316;3026234;-67
2022/01/15 04:57:05;;;;;;;2.60;0.80;;;;;;;0.50;68.98;97680.45;25142;1316;3027932;-69
2022/01/15 04:59:35;;;;;;;3.10;0.90;;;;;;;0.68;67.85;97687.35;25175;1314;3054842;-67
2022/01/15 05:02:03;;;;;;;1.30;0.60;;;;;;;0.72;67.27;97683.56;25114;1316;3029041;-72
2022/01/15 05:04:32;;;;;;;2.80;0.80;;;;;;;0.55;67.29;97701.62;25167;1316;3049146;-66
2022/01/15 05:07:01;;;;;;;2.30;0.60;;;;;;;0.39;68.00;97694.98;25116;1316;3026374;-68
2022/01/15 05:09:30;;;;;;;2.20;0.60;;;;;;;0.19;68.45;97686.96;25161;1316;3058744;-68
2022/01/15 05:12:03;;;;;;;3.00;0.70;;;;;;;0.08;68.35;97693.47;25123;1316;3026501;-67
2022/01/15 05:14:33;;;;;;;0.40;0.30;;;;;;;-0.05;68.71;97709.75;25111;1316;3053966;-70
2022/01/15 05:17:02;;;;;;;2.70;0.80;;;;;;;-0.11;69.04;97703.84;25103;1316;3027412;-70
2022/01/15 05:19:31;;;;;;;4.40;1.20;;;;;;;-0.20;69.54;97718.85;25123;1315;3051449;-66
2022/01/15 05:22:00;;;;;;;2.60;1.10;;;;;;;-0.24;69.84;97719.52;25120;1316;3026929;-66
2022/01/15 05:24:31;;;;;;;3.80;0.70;;;;;;;-0.40;71.06;97734.90;25108;1315;3047992;-66
2022/01/15 05:27:00;;;;;;;2.00;0.50;;;;;;;-0.43;73.72;97716.23;25113;1319;3030179;-66
2022/01/15 05:29:30;;;;;;;1.10;0.30;;;;;;;0.06;72.47;97738.84;25077;1316;3026817;-67
2022/01/15 05:31:59;;;;;;;1.00;0.50;;;;;;;0.45;70.87;97733.63;25085;1316;3026345;-67
2022/01/15 05:34:28;;;;;;;2.80;0.70;;;;;;;0.27;71.27;97758.90;25135;1316;3026380;-69
2022/01/15 05:36:57;;;;;;;1.20;0.60;;;;;;;0.12;71.76;97758.40;25103;1315;3051862;-68
2022/01/15 05:39:26;;;;;;;3.50;0.80;;;;;;;0.04;72.12;97746.53;25108;1316;3026596;-67
2022/01/15 05:41:56;;;;;;;1.70;0.90;;;;;;;-0.20;72.70;97767.20;25123;1316;3026550;-68
2022/01/15 05:44:25;;;;;;;1.10;0.70;;;;;;;-0.32;73.21;97754.48;25119;1316;3055109;-69
2022/01/15 05:46:54;;;;;;;3.60;0.90;;;;;;;-0.48;73.80;97764.10;25113;1316;3026812;-70
2022/01/15 05:49:23;;;;;;;1.50;0.60;;;;;;;-0.57;74.20;97772.56;25155;1316;3050116;-66
2022/01/15 05:51:52;;;;;;;1.50;0.80;;;;;;;-0.35;74.03;97776.29;25148;1316;3027939;-67
2022/01/15 05:54:21;;;;;;;3.40;0.50;;;;;;;0.28;72.11;97777.65;25095;1317;3051145;-70
2022/01/15 05:56:50;;;;;;;1.90;0.60;;;;;;;0.49;71.18;97779.77;25121;1316;3026456;-70
2022/01/15 05:59:19;;;;;;;8.40;0.80;;;;;;;0.46;70.86;97781.99;25102;1316;3069898;-68
2022/01/15 06:01:47;;;;;;;1.00;0.50;;;;;;;0.21;71.07;97791.23;25125;1315;3029657;-66
2022/01/15 06:04:17;;;;;;;2.80;0.60;;;;;;;0.17;71.46;97786.39;25127;1316;3050507;-67
2022/01/15 06:06:45;;;;;;;3.40;1.10;;;;;;;0.12;71.31;97785.79;25110;1316;3026308;-69
2022/01/15 06:09:28;;;;;;;3.10;0.90;;;;;;;0.05;71.33;97795.86;25105;1319;3052034;-69
2022/01/15 06:12:00;;;;;;;1.30;0.50;;;;;;;0.02;70.88;97805.83;25131;1316;3026690;-67
2022/01/15 06:14:30;;;;;;;2.60;0.70;;;;;;;0.05;70.78;97814.13;25136;1316;3027155;-68
2022/01/15 06:17:00;;;;;;;2.40;0.70;;;;;;;-0.12;70.93;97825.89;25113;1315;3027430;-68
2022/01/15 06:19:29;;;;;;;2.70;0.80;;;;;;;-0.18;70.95;97816.50;25099;1316;3026636;-68
2022/01/15 06:22:02;;;;;;;7.60;1.40;;;;;;;-0.24;70.92;97834.52;25093;1316;3053755;-65
2022/01/15 06:24:32;;;;;;;5.50;1.80;;;;;;;-0.21;70.97;97824.88;25086;1315;3026402;-65
2022/01/15 06:27:01;;;;;;;3.80;0.80;;;;;;;0.41;68.99;97854.55;25116;1316;3027760;-68
2022/01/15 06:29:30;;;;;;;1.70;0.80;;;;;;;0.74;67.37;97830.97;25106;1315;3050958;-68
2022/01/15 06:31:58;;;;;;;3.60;0.80;;;;;;;0.70;66.86;97836.70;25104;1316;3029137;-69
2022/01/15 06:34:27;;;;;;;6.40;1.00;;;;;;;0.57;67.23;97834.54;25134;1316;3053273;-69
2022/01/15 06:36:56;;;;;;;1.60;0.80;;;;;;;0.45;67.58;97839.73;25130;1316;3027499;-69
2022/01/15 06:39:25;;;;;;;3.70;1.10;;;;;;;0.33;67.42;97870.05;25123;1315;3048366;-68
2022/01/15 06:41:54;;;;;;;2.30;0.70;;;;;;;0.30;67.58;97856.24;25109;1316;3027947;-66
2022/01/15 06:44:23;;;;;;;2.50;0.60;;;;;;;0.22;66.88;97881.72;25103;1315;3070839;-67
2022/01/15 06:46:52;;;;;;;4.10;1.20;;;;;;;0.22;67.30;97855.73;25138;1316;3026422;-67
2022/01/15 06:49:21;;;;;;;2.00;0.80;;;;;;;0.26;67.46;97847.80;25161;1316;3050950;-69
2022/01/15 06:51:50;;;;;;;3.20;0.90;;;;;;;0.23;67.56;97879.30;25122;1316;3027730;-67
2022/01/15 06:54:19;;;;;;;1.40;0.70;;;;;;;0.17;67.71;97887.45;25104;1316;3026419;-68
2022/01/15 06:56:48;;;;;;;2.60;0.90;;;;;;;0.13;67.94;97886.63;25134;1316;3050506;-69
2022/01/15 06:59:17;;;;;;;3.60;0.90;;;;;;;0.10;68.01;97895.34;25091;1315;3026952;-65
2022/01/15 07:01:45;;;;;;;2.30;0.80;;;;;;;0.15;68.18;97878.63;25160;1316;3054784;-64
2022/01/15 07:04:14;;;;;;;4.90;1.70;;;;;;;0.11;67.68;97879.10;25329;1317;3026538;-67
2022/01/15 07:06:43;;;;;;;3.10;1.00;;;;;;;0.13;67.96;97889.70;25357;1318;3049854;-65
2022/01/15 07:09:13;;;;;;;4.30;1.20;;;;;;;0.06;67.77;97890.35;25155;1315;3026914;-68
2022/01/15 07:11:42;;;;;;;3.80;1.00;;;;;;;0.08;67.67;97874.61;25120;1316;3026782;-65
2022/01/15 07:14:11;;;;;;;2.30;1.10;;;;;;;0.10;67.66;97886.40;25153;1316;3048091;-67
2022/01/15 07:16:40;;;;;;;3.10;1.30;;;;;;;0.16;67.52;97885.61;25126;1316;3026601;-69
2022/01/15 07:19:09;;;;;;;6.10;1.30;;;;;;;0.15;67.32;97906.32;25124;1315;3028169;-68
2022/01/15 07:21:38;;;;;;;1.50;0.70;;;;;;;0.07;67.52;97916.67;25126;1316;3048711;-68
2022/01/15 07:24:08;;;;;;;1.80;0.70;;;;;;;0.06;67.30;97906.35;25121;1315;3028934;-69
2022/01/15 07:26:37;;;;;;;4.90;0.90;;;;;;;0.00;67.54;97907.46;25092;1316;3026755;-68
2022/01/15 07:29:13;;;;;;;2.40;0.60;;;;;;;0.14;67.12;97894.98;25100;1316;3029930;-67
2022/01/15 07:31:45;;;;;;;4.40;1.00;;;;;;;0.07;66.99;97914.77;25142;1316;3054813;-67
2022/01/15 07:34:14;;;;;;;2.90;1.10;;;;;;;0.02;67.22;97922.03;25141;1316;3030046;-67
2022/01/15 07:36:43;;;;;;;3.90;1.20;;;;;;;0.05;67.46;97920.89;25118;1316;3027916;-67
2022/01/15 07:39:12;;;;;;;3.60;0.80;;;;;;;0.13;67.09;97924.49;25140;1316;3054488;-69
2022/01/15 07:41:42;;;;;;;4.40;1.10;;;;;;;0.05;67.08;97942.23;25107;1316;3026519;-67
2022/01/15 07:44:11;;;;;;;3.40;1.10;;;;;;;0.07;66.75;97932.13;25107;1316;3028512;-69
2022/01/15 07:46:40;;;;;;;4.00;1.20;;;;;;;0.13;66.47;97942.57;25119;1314;3054528;-69
2022/01/15 07:49:09;;;;;;;7.00;2.00;;;;;;;0.07;66.62;97938.02;25104;1316;3026838;-69
2022/01/15 07:51:38;;;;;;;4.70;1.10;;;;;;;0.12;66.17;97953.80;25109;1316;3048870;-68
2022/01/15 07:54:07;;;;;;;7.70;1.80;;;;;;;0.07;66.35;97940.77;25117;1315;3026662;-69
2022/01/15 07:56:36;;;;;;;17.00;3.40;;;;;;;0.20;66.10;97938.48;25152;1316;3058369;-68
2022/01/15 07:59:05;;;;;;;9.00;2.50;;;;;;;0.20;66.02;97935.70;25133;1316;3027319;-67
2022/01/15 08:01:35;;;;;;;9.60;2.30;;;;;;;0.32;65.61;97953.48;25116;1316;3054873;-67
2022/01/15 08:04:04;;;;;;;7.20;2.30;;;;;;;0.34;65.32;97951.85;25122;1315;3026277;-68
2022/01/15 08:06:32;;;;;;;9.50;2.40;;;;;;;0.41;65.43;97954.65;25146;1315;3050722;-69
2022/01/15 08:09:01;;;;;;;6.90;2.30;;;;;;;0.45;65.23;97950.65;25108;1315;3027683;-70
2022/01/15 08:11:30;;;;;;;4.70;1.70;;;;;;;0.42;65.17;97959.45;25115;1316;3048593;-67
2022/01/15 08:13:59;;;;;;;4.30;1.30;;;;;;;0.35;65.44;97979.00;25122;1316;3030020;-71
2022/01/15 08:16:36;;;;;;;5.90;1.80;;;;;;;0.34;65.52;97975.12;25104;1315;3070653;-69
2022/01/15 08:19:05;;;;;;;3.20;0.90;;;;;;;0.44;65.36;97958.65;25132;1315;3028200;-72
2022/01/15 08:21:33;;;;;;;4.80;1.60;;;;;;;0.46;65.15;97964.22;25138;1316;3053782;-68
2022/01/15 08:24:03;;;;;;;3.40;1.40;;;;;;;0.61;64.83;97958.42;25149;1316;3026211;-69
2022/01/15 08:26:32;;;;;;;3.70;1.30;;;;;;;0.68;64.79;97962.90;25101;1316;3052612;-69
2022/01/15 08:29:01;;;;;;;4.70;1.10;;;;;;;0.61;64.91;97960.84;25133;1316;3026712;-69
2022/01/15 08:31:32;;;;;;;4.50;1.30;;;;;;;0.64;64.94;97961.74;25122;1314;3049574;-67
2022/01/15 08:34:08;;;;;;;3.80;1.30;;;;;;;0.66;64.68;97967.14;25148;1316;3054186;-67
2022/01/15 08:36:38;;;;;;;2.90;1.10;;;;;;;0.52;64.82;97982.06;25130;1316;3025982;-69
2022/01/15 08:39:08;;;;;;;2.80;1.00;;;;;;;0.70;64.39;97967.66;25140;1316;3026330;-68
2022/01/15 08:41:37;;;;;;;3.60;1.10;;;;;;;0.72;64.09;97983.62;25129;1316;3026337;-69
2022/01/15 08:44:06;;;;;;;4.20;1.10;;;;;;;0.66;64.24;97981.14;25137;1314;3026584;-66
2022/01/15 08:46:35;;;;;;;7.00;1.70;;;;;;;0.73;64.49;97975.98;25080;1316;3070474;-68
2022/01/15 08:49:04;;;;;;;5.10;1.20;;;;;;;0.83;63.96;97974.69;25087;1315;3026647;-69
2022/01/15 08:51:33;;;;;;;5.50;1.00;;;;;;;0.80;64.02;97985.33;25113;1316;3052404;-65
2022/01/15 08:54:02;;;;;;;2.40;0.90;;;;;;;0.80;64.37;97978.43;25138;1316;3026963;-67
2022/01/15 08:56:31;;;;;;;2.30;0.90;;;;;;;0.70;64.50;97996.45;25163;1316;3051877;-68
2022/01/15 08:59:02;;;;;;;3.70;1.20;;;;;;;0.65;64.54;97975.12;25141;1316;3028556;-68
2022/01/15 09:01:31;;;;;;;5.20;1.80;;;;;;;0.79;64.12;97979.70;25130;1315;3047436;-69
2022/01/15 09:04:00;;;;;;;3.60;1.20;;;;;;;0.82;64.14;97988.36;25111;1315;3026848;-68
2022/01/15 09:06:29;;;;;;;2.80;0.90;;;;;;;0.72;64.09;97997.06;25099;1314;3055613;-69
2022/01/15 09:08:58;;;;;;;6.40;1.40;;;;;;;0.85;63.87;97982.53;25125;1315;3026188;-67
2022/01/15 09:11:27;;;;;;;6.70;2.20;;;;;;;0.79;63.80;97982.46;25145;1315;3053883;-68
2022/01/15 09:13:55;;;;;;;5.10;1.20;;;;;;;0.72;63.84;97985.33;25106;1316;3026966;-69
2022/01/15 09:16:25;;;;;;;4.10;1.20;;;;;;;0.79;63.71;97984.34;25113;1316;3052485;-70
2022/01/15 09:18:56;;;;;;;3.20;1.00;;;;;;;0.82;63.48;97978.68;25195;1315;3028322;-66
2022/01/15 09:21:25;;;;;;;1.40;1.10;;;;;;;0.80;63.30;97991.69;25124;1316;3048539;-69
2022/01/15 09:23:54;;;;;;;4.20;0.90;;;;;;;0.77;63.09;97987.70;25139;1315;3026733;-68
2022/01/15 09:26:45;;;;;;;5.10;1.00;;;;;;;0.92;62.99;97972.58;25112;1315;3068042;-67
2022/01/15 09:31:59;;;;;;;5.90;1.20;;;;;;;0.95;62.93;97972.92;25108;1316;3052046;-67
2022/01/15 09:34:29;;;;;;;6.00;1.00;;;;;;;0.95;62.48;97991.36;25124;1315;3026801;-68
2022/01/15 09:36:58;;;;;;;8.80;1.00;;;;;;;1.04;62.35;97976.52;25129;1316;3026584;-68
2022/01/15 09:39:27;;;;;;;2.00;0.70;;;;;;;0.86;62.75;97987.97;25120;1316;3054126;-68
2022/01/15 09:41:56;;;;;;;3.00;1.20;;;;;;;0.88;62.49;98004.64;25144;1315;3027197;-68
2022/01/15 09:44:26;;;;;;;3.90;1.00;;;;;;;0.86;62.65;98004.52;25109;1315;3048409;-68
2022/01/15 09:46:55;;;;;;;2.60;1.00;;;;;;;0.97;62.30;97991.81;25099;1316;3026301;-67
2022/01/15 09:49:24;;;;;;;3.50;1.60;;;;;;;0.93;62.57;97993.73;25142;1316;3028572;-68
2022/01/15 09:51:53;;;;;;;3.20;0.90;;;;;;;0.90;62.64;98035.39;25077;1319;3026444;-67
2022/01/15 09:54:22;;;;;;;4.70;1.20;;;;;;;0.99;62.99;98006.40;25096;1319;3052001;-69
2022/01/15 09:56:51;;;;;;;3.90;1.60;;;;;;;1.04;62.44;98001.02;25130;1316;3026823;-64
2022/01/15 09:59:20;;;;;;;4.60;1.50;;;;;;;1.10;62.49;97986.91;25132;1316;3046687;-68
2022/01/15 10:01:49;;;;;;;7.30;1.50;;;;;;;1.22;62.34;97990.86;25099;1315;3026892;-68
2022/01/15 10:04:18;;;;;;;2.80;0.80;;;;;;;1.14;62.04;98000.38;25087;1318;3072125;-67
2022/01/15 10:07:07;;;;;;;2.40;1.00;;;;;;;1.08;62.26;97998.91;25120;1315;3026398;-67
2022/01/15 10:09:37;;;;;;;4.40;0.90;;;;;;;1.05;62.43;98005.95;25106;1315;3053866;-68
2022/01/15 10:12:07;;;;;;;4.50;1.60;;;;;;;1.01;62.43;98011.83;25107;1316;3026468;-69
2022/01/15 10:14:37;;;;;;;6.70;1.50;;;;;;;1.07;62.74;97995.16;25134;1315;3053666;-66
2022/01/15 10:17:20;;;;;;;5.30;1.50;;;;;;;1.22;62.31;97992.59;25119;1316;3026995;-67
2022/01/15 10:19:49;;;;;;;6.20;1.70;;;;;;;1.27;62.41;98004.77;25062;1315;3068836;-68
2022/01/15 10:22:22;;;;;;;1.80;0.80;;;;;;;1.25;62.12;98026.59;25099;1315;3026509;-66
2022/01/15 10:25:02;;;;;;;3.30;1.20;;;;;;;1.21;62.88;98037.30;25135;1316;3054370;-66
2022/01/15 10:27:33;;;;;;;1.60;1.10;;;;;;;1.17;63.15;98036.94;25115;1314;3069013;-69
2022/01/15 10:30:07;;;;;;;5.60;1.40;;;;;;;1.21;62.92;98031.46;25132;1314;3028685;-67
2022/01/15 10:32:38;;;;;;;4.40;1.00;;;;;;;1.24;62.56;98020.10;25079;1315;3050689;-67
2022/01/15 10:35:15;;;;;;;3.80;1.00;;;;;;;1.14;62.64;98009.69;25168;1316;3027179;-65
2022/01/15 10:38:04;;;;;;;3.00;1.00;;;;;;;1.30;62.18;98036.72;25130;1316;3056592;-68
2022/01/15 10:40:51;;;;;;;2.30;0.90;;;;;;;1.33;62.40;98035.54;25113;1315;3053490;-67
2022/01/15 10:43:20;;;;;;;4.20;0.70;;;;;;;1.44;61.59;98014.86;25111;1316;3053350;-67
2022/01/15 10:45:59;;;;;;;7.50;1.30;;;;;;;1.48;62.06;98022.76;25168;1314;3027000;-69
2022/01/15 10:48:34;;;;;;;2.50;1.00;;;;;;;1.51;62.12;98024.73;25154;1316;3050353;-65
2022/01/15 10:52:09;;;;;;;4.40;1.20;;;;;;;1.45;62.83;98011.34;31504;1318;3026486;-65
2022/01/15 10:54:50;;;;;;;8.20;2.60;;;;;;;1.77;62.24;98015.21;24894;1322;3054132;-67
2022/01/15 10:57:22;;;;;;;5.70;1.40;;;;;;;1.89;62.10;98026.89;24908;1321;3053722;-67
2022/01/15 11:00:17;;;;;;;5.20;1.50;;;;;;;1.58;65.18;98051.84;24975;1321;3026515;-67
2022/01/15 11:02:49;;;;;;;3.50;1.70;;;;;;;1.12;70.99;98062.55;24913;1321;3053255;-67
2022/01/15 11:05:27;;;;;;;2.60;1.20;;;;;;;0.85;72.97;98060.07;24737;1321;3384520;-69
2022/01/15 11:08:06;;;;;;;2.80;1.00;;;;;;;1.32;72.70;98053.69;24997;1318;3049864;-67
2022/01/15 11:10:56;;;;;;;2.80;1.10;;;;;;;1.59;70.49;98056.42;24975;1318;3071324;-65
2022/01/15 11:13:39;;;;;;;1.50;0.90;;;;;;;1.57;69.20;98048.77;25041;1318;3053589;-67
2022/01/15 11:16:14;;;;;;;3.60;1.20;;;;;;;1.60;68.68;98044.83;25052;1318;3055397;-67
2022/01/15 11:18:51;;;;;;;4.10;1.30;;;;;;;1.44;68.79;98046.23;25034;1318;3051484;-65
2022/01/15 11:21:21;;;;;;;3.60;1.60;;;;;;;1.33;68.55;98052.78;25174;1318;3055971;-67
2022/01/15 11:23:50;;;;;;;4.30;1.80;;;;;;;1.09;69.21;98063.68;25345;1318;3026122;-68
2022/01/15 11:26:24;;;;;;;4.30;1.20;;;;;;;1.02;69.48;98048.50;25503;1318;3027680;-67
2022/01/15 11:28:55;;;;;;;4.30;1.40;;;;;;;1.01;69.43;98056.66;25239;1321;3058446;-65
2022/01/15 11:31:25;;;;;;;5.90;1.70;;;;;;;0.94;69.16;98056.11;25340;1318;3026841;-73
2022/01/15 11:33:57;;;;;;;4.90;1.70;;;;;;;1.05;68.48;98046.98;25054;1318;3026828;-67
2022/01/15 11:36:33;;;;;;;3.20;1.40;;;;;;;1.19;67.91;98053.97;25034;1318;3027056;-68
2022/01/15 11:39:18;;;;;;;4.40;1.60;;;;;;;1.18;67.35;98059.70;25140;1315;3069387;-66
2022/01/15 11:41:52;;;;;;;4.50;1.70;;;;;;;1.11;66.99;98067.55;25117;1314;3048174;-67
2022/01/15 11:44:29;;;;;;;4.30;1.10;;;;;;;1.15;66.24;98074.32;25105;1314;3027172;-69
2022/01/15 11:47:15;;;;;;;8.40;1.40;;;;;;;1.11;65.60;98091.55;25166;1315;3051915;-69
2022/01/15 11:49:49;;;;;;;4.50;1.40;;;;;;;1.22;64.74;98064.14;25114;1314;3059007;-67
2022/01/15 11:52:21;;;;;;;5.30;1.50;;;;;;;1.30;64.07;98086.95;25257;1314;3051083;-66
2022/01/15 11:54:50;;;;;;;4.10;1.50;;;;;;;1.38;63.60;98092.42;25076;1314;3027158;-69
2022/01/15 11:57:23;;;;;;;4.60;1.50;;;;;;;1.48;63.02;98081.82;25152;1315;3026503;-70
2022/01/15 11:59:53;;;;;;;4.20;1.30;;;;;;;1.55;62.85;98093.04;25149;1314;3052175;-65
2022/01/15 12:02:37;;;;;;;6.00;1.70;;;;;;;1.59;62.33;98080.44;25212;1315;3027905;-71